Time;durP1;ratioP1;P1;durP2;ratioP2;P2;SDS_P1;SDS_P2;PMS_P1;PMS_P2;Temp;Humidity;BMP_temperature;BMP_pressure;BME280_temperature;BME280_humidity;BME280_pressure;Samples;Min_cycle;Max_cycle;Signal;HPM_P1;HPM_P2
2022/01/03 00:00:35;;;;;;;;;;;19.70;58.20;;;;;;5034524;28;1393;-70
2022/01/03 00:03:02;;;;;;;;;;;19.70;58.30;;;;;;5021918;28;1307;-69
2022/01/03 00:05:27;;;;;;;;;;;19.70;58.30;;;;;;5015995;28;1490;-70
2022/01/03 00:07:53;;;;;;;;;;;19.70;58.30;;;;;;5032765;28;1322;-69
2022/01/03 00:10:18;;;;;;;;;;;19.70;58.30;;;;;;5031521;28;1310;-70
2022/01/03 00:12:44;;;;;;;;;;;19.70;58.40;;;;;;5031415;28;1164;-70
2022/01/03 00:15:11;;;;;;;;;;;19.70;58.40;;;;;;5032622;28;1977;-68
2022/01/03 00:17:36;;;;;;;;;;;19.70;58.40;;;;;;5027993;28;1374;-69
2022/01/03 00:20:02;;;;;;;;;;;19.60;58.30;;;;;;5035227;28;1193;-70
2022/01/03 00:22:29;;;;;;;;;;;19.60;58.40;;;;;;5036784;28;1388;-70
2022/01/03 00:24:58;;;;;;;;;;;19.60;58.40;;;;;;5028917;28;1516;-68
2022/01/03 00:27:24;;;;;;;;;;;19.60;58.40;;;;;;5023755;28;1361;-69
2022/01/03 00:29:50;;;;;;;;;;;19.60;58.40;;;;;;5035480;28;1322;-69
2022/01/03 00:32:15;;;;;;;;;;;19.60;58.50;;;;;;5035489;28;1140;-71
2022/01/03 00:34:41;;;;;;;;;;;19.60;58.50;;;;;;5036114;28;1902;-71
2022/01/03 00:37:07;;;;;;;;;;;19.60;58.50;;;;;;5035674;28;1234;-69
2022/01/03 00:39:32;;;;;;;;;;;19.60;58.50;;;;;;5036511;28;1268;-69
2022/01/03 00:41:58;;;;;;;;;;;19.60;58.60;;;;;;5037645;28;1203;-70
2022/01/03 00:44:24;;;;;;;;;;;19.60;58.60;;;;;;5037720;28;1291;-69
2022/01/03 00:46:49;;;;;;;;;;;19.60;58.60;;;;;;5037729;28;1381;-70
2022/01/03 00:49:15;;;;;;;;;;;19.60;58.60;;;;;;5045978;22;2217;-68
2022/01/03 00:51:40;;;;;;;;;;;19.50;58.60;;;;;;5036039;28;1420;-68
2022/01/03 00:54:05;;;;;;;;;;;19.50;58.60;;;;;;5036129;28;1918;-68
2022/01/03 00:56:38;;;;;;;;;;;19.50;58.60;;;;;;5017529;28;1675;-68
2022/01/03 00:59:04;;;;;;;;;;;19.60;58.60;;;;;;5044327;28;1672;-68
2022/01/03 01:01:29;;;;;;;;;;;19.50;58.60;;;;;;5028994;28;1180;-68
2022/01/03 01:03:55;;;;;;;;;;;19.60;58.70;;;;;;5014788;28;1187;-68
2022/01/03 01:06:21;;;;;;;;;;;19.50;58.70;;;;;;5016221;28;1501;-68
2022/01/03 01:08:46;;;;;;;;;;;19.50;58.70;;;;;;5014962;28;1331;-68
2022/01/03 01:11:12;;;;;;;;;;;19.50;58.70;;;;;;5051148;28;1267;-68
2022/01/03 01:13:39;;;;;;;;;;;19.60;58.70;;;;;;5034389;28;1353;-68
2022/01/03 01:16:05;;;;;;;;;;;19.50;58.70;;;;;;5015078;28;1965;-68
2022/01/03 01:18:35;;;;;;;;;;;19.50;58.70;;;;;;5014644;28;1289;-68
2022/01/03 01:21:00;;;;;;;;;;;19.50;58.80;;;;;;5016100;28;1008;-68
2022/01/03 01:23:25;;;;;;;;;;;19.50;58.80;;;;;;5015589;28;1377;-66
2022/01/03 01:28:19;;;;;;;;;;;19.50;58.80;;;;;;5015898;28;1285;-68
2022/01/03 01:30:45;;;;;;;;;;;19.50;58.80;;;;;;5015384;28;1329;-67
2022/01/03 01:33:11;;;;;;;;;;;19.50;58.80;;;;;;4997682;28;1145;-68
2022/01/03 01:35:41;;;;;;;;;;;19.50;58.80;;;;;;5015604;28;1958;-68
2022/01/03 01:38:06;;;;;;;;;;;19.50;58.90;;;;;;5015493;28;1393;-68
2022/01/03 01:40:32;;;;;;;;;;;19.50;58.80;;;;;;5015546;28;1379;-68
2022/01/03 01:42:57;;;;;;;;;;;19.50;58.90;;;;;;5013946;28;1116;-67
2022/01/03 01:45:25;;;;;;;;;;;19.40;58.80;;;;;;5013893;28;1144;-67
2022/01/03 01:47:50;;;;;;;;;;;19.50;58.90;;;;;;5015277;28;1318;-67
2022/01/03 01:50:15;;;;;;;;;;;19.50;58.90;;;;;;5015362;28;1359;-68
2022/01/03 01:52:41;;;;;;;;;;;19.40;58.90;;;;;;5015146;28;1066;-68
2022/01/03 01:55:08;;;;;;;;;;;19.40;58.90;;;;;;4997546;28;1974;-67
2022/01/03 01:57:47;;;;;;;;;;;19.40;58.90;;;;;;5013978;28;1376;-68
2022/01/03 02:00:13;;;;;;;;;;;19.40;58.90;;;;;;5023040;28;1375;-68
2022/01/03 02:02:58;;;;;;;;;;;19.40;58.90;;;;;;5017565;28;1340;-67
2022/01/03 02:05:29;;;;;;;;;;;19.40;58.90;;;;;;5014693;28;1358;-67
2022/01/03 02:08:03;;;;;;;;;;;19.40;58.90;;;;;;5013735;28;1415;-68
2022/01/03 02:10:34;;;;;;;;;;;19.40;58.90;;;;;;5028486;28;1337;-68
2022/01/03 02:12:59;;;;;;;;;;;19.40;58.90;;;;;;5034301;28;1156;-68
2022/01/03 02:15:24;;;;;;;;;;;19.40;58.90;;;;;;5019527;28;1914;-69
2022/01/03 02:17:50;;;;;;;;;;;19.40;59.00;;;;;;5014749;28;1402;-68
2022/01/03 02:20:23;;;;;;;;;;;19.40;59.00;;;;;;5013505;28;1345;-68
2022/01/03 02:22:48;;;;;;;;;;;19.40;59.00;;;;;;5013120;28;1285;-68
2022/01/03 02:25:14;;;;;;;;;;;19.40;59.00;;;;;;5014654;28;1278;-69
2022/01/03 02:27:40;;;;;;;;;;;19.40;59.00;;;;;;5014483;28;1324;-67
2022/01/03 02:30:06;;;;;;;;;;;19.40;59.00;;;;;;5014766;28;1528;-67
2022/01/03 02:32:32;;;;;;;;;;;19.40;59.10;;;;;;5013440;28;1418;-67
2022/01/03 02:34:57;;;;;;;;;;;19.40;59.10;;;;;;5013066;28;1890;-68
2022/01/03 02:37:23;;;;;;;;;;;19.40;59.10;;;;;;5014615;28;1363;-68
2022/01/03 02:39:49;;;;;;;;;;;19.40;59.10;;;;;;5014599;28;1544;-67
2022/01/03 02:42:14;;;;;;;;;;;19.40;59.00;;;;;;5014073;28;1369;-67
2022/01/03 02:44:42;;;;;;;;;;;19.40;59.00;;;;;;5014296;28;1388;-67
2022/01/03 02:47:07;;;;;;;;;;;19.40;58.90;;;;;;5013198;28;1358;-67
2022/01/03 02:49:33;;;;;;;;;;;19.50;58.90;;;;;;5013176;28;1696;-67
2022/01/03 02:51:58;;;;;;;;;;;19.50;58.90;;;;;;5014080;28;1387;-67
2022/01/03 02:54:24;;;;;;;;;;;19.50;58.80;;;;;;5014040;28;1902;-67
2022/01/03 02:56:49;;;;;;;;;;;19.50;58.70;;;;;;5014172;28;1387;-67
2022/01/03 02:59:16;;;;;;;;;;;19.50;58.60;;;;;;5014149;28;1387;-67
2022/01/03 03:01:41;;;;;;;;;;;19.60;58.60;;;;;;5012585;28;1165;-68
2022/01/03 03:04:07;;;;;;;;;;;19.60;58.50;;;;;;5012765;28;1390;-68
2022/01/03 03:06:33;;;;;;;;;;;19.60;58.40;;;;;;5012904;28;1380;-68
2022/01/03 03:08:58;;;;;;;;;;;19.60;58.40;;;;;;5015316;28;1358;-68
2022/01/03 03:11:24;;;;;;;;;;;19.70;58.30;;;;;;5033738;28;1354;-68
2022/01/03 03:13:49;;;;;;;;;;;19.70;58.30;;;;;;5020363;28;1396;-68
2022/01/03 03:16:14;;;;;;;;;;;19.70;58.20;;;;;;5022079;28;1898;-68
2022/01/03 03:18:43;;;;;;;;;;;19.70;58.20;;;;;;5033619;28;1349;-68
2022/01/03 03:21:08;;;;;;;;;;;19.70;58.20;;;;;;5011551;28;1149;-68
2022/01/03 03:23:33;;;;;;;;;;;19.70;58.10;;;;;;5012733;28;1327;-68
2022/01/03 03:25:59;;;;;;;;;;;19.70;58.00;;;;;;5012830;28;1339;-68
2022/01/03 03:28:25;;;;;;;;;;;19.70;58.00;;;;;;5014930;28;1434;-68
2022/01/03 03:30:51;;;;;;;;;;;19.70;58.00;;;;;;5012091;28;1408;-67
2022/01/03 03:33:18;;;;;;;;;;;19.80;58.00;;;;;;5020375;28;1270;-67
2022/01/03 03:35:43;;;;;;;;;;;19.80;58.00;;;;;;5013082;28;1886;-67
2022/01/03 03:38:09;;;;;;;;;;;19.80;57.90;;;;;;5022740;28;1348;-68
2022/01/03 03:40:34;;;;;;;;;;;19.80;57.90;;;;;;5014431;28;1326;-68
2022/01/03 03:43:00;;;;;;;;;;;19.80;57.90;;;;;;5027006;28;1272;-67
2022/01/03 03:45:25;;;;;;;;;;;19.80;57.90;;;;;;5015360;28;1316;-69
2022/01/03 03:47:51;;;;;;;;;;;19.80;57.90;;;;;;5012594;28;1305;-68
2022/01/03 03:50:17;;;;;;;;;;;19.80;57.90;;;;;;5012289;28;1458;-68
2022/01/03 03:52:43;;;;;;;;;;;19.80;57.90;;;;;;5010926;28;1460;-68
2022/01/03 03:55:09;;;;;;;;;;;19.80;57.90;;;;;;5012538;28;1907;-68
2022/01/03 03:57:34;;;;;;;;;;;19.80;57.90;;;;;;5011908;28;1207;-68
2022/01/03 03:59:59;;;;;;;;;;;19.80;58.50;;;;;;5012029;28;1219;-68
2022/01/03 04:02:25;;;;;;;;;;;19.80;57.90;;;;;;5013017;28;1170;-68
2022/01/03 04:04:51;;;;;;;;;;;19.80;57.90;;;;;;5012849;28;1048;-68
2022/01/03 04:07:16;;;;;;;;;;;19.80;57.80;;;;;;5012947;28;1080;-68
2022/01/03 04:09:42;;;;;;;;;;;19.80;57.90;;;;;;5020479;28;1272;-68
2022/01/03 04:12:07;;;;;;;;;;;19.80;57.80;;;;;;5032683;28;1255;-68
2022/01/03 04:14:33;;;;;;;;;;;19.80;57.80;;;;;;5024503;28;1890;-68
2022/01/03 04:16:58;;;;;;;;;;;19.80;57.80;;;;;;5012988;28;1044;-68
2022/01/03 04:19:23;;;;;;;;;;;19.80;57.80;;;;;;5011625;28;1222;-68
2022/01/03 04:21:49;;;;;;;;;;;19.80;57.80;;;;;;5013031;28;1111;-68
2022/01/03 04:24:14;;;;;;;;;;;19.80;57.80;;;;;;5012752;28;1337;-68
2022/01/03 04:26:40;;;;;;;;;;;19.80;57.80;;;;;;5012955;28;1325;-68
2022/01/03 04:29:05;;;;;;;;;;;19.90;57.90;;;;;;5012917;28;1354;-68
2022/01/03 04:31:31;;;;;;;;;;;19.90;57.90;;;;;;5011697;28;1403;-68
2022/01/03 04:33:56;;;;;;;;;;;19.90;57.80;;;;;;5012697;28;1272;-68
2022/01/03 04:36:22;;;;;;;;;;;19.90;57.80;;;;;;5011455;28;1934;-68
2022/01/03 04:38:48;;;;;;;;;;;19.90;57.80;;;;;;5011555;28;1622;-68
2022/01/03 04:41:13;;;;;;;;;;;19.90;57.80;;;;;;5012742;28;1092;-68
2022/01/03 04:43:41;;;;;;;;;;;19.90;57.70;;;;;;5012372;28;1239;-68
2022/01/03 04:46:07;;;;;;;;;;;19.90;57.70;;;;;;5011561;28;1123;-68
2022/01/03 04:48:32;;;;;;;;;;;19.90;57.70;;;;;;5011268;28;1295;-68
2022/01/03 04:50:58;;;;;;;;;;;19.90;57.70;;;;;;5012699;28;1158;-68
2022/01/03 04:53:25;;;;;;;;;;;19.90;57.70;;;;;;5030931;28;1064;-68
2022/01/03 04:55:51;;;;;;;;;;;19.90;57.70;;;;;;5032587;28;1979;-68
2022/01/03 04:58:16;;;;;;;;;;;19.90;57.70;;;;;;5031181;28;1298;-68
2022/01/03 05:00:42;;;;;;;;;;;19.90;57.70;;;;;;5031050;28;1390;-68
2022/01/03 05:03:07;;;;;;;;;;;19.90;57.70;;;;;;4997721;28;1163;-68
2022/01/03 05:05:32;;;;;;;;;;;19.90;57.60;;;;;;5014328;28;1321;-68
2022/01/03 05:07:58;;;;;;;;;;;19.90;57.60;;;;;;5035507;28;1110;-68
2022/01/03 05:10:23;;;;;;;;;;;19.90;57.60;;;;;;5018297;28;1253;-68
2022/01/03 05:12:49;;;;;;;;;;;19.90;57.60;;;;;;5014511;28;1296;-69
2022/01/03 05:15:14;;;;;;;;;;;19.90;57.60;;;;;;5015715;28;1902;-68
2022/01/03 05:17:40;;;;;;;;;;;19.90;57.60;;;;;;5033933;28;1324;-68
2022/01/03 05:20:05;;;;;;;;;;;20.00;57.70;;;;;;5035576;28;1424;-68
2022/01/03 05:22:31;;;;;;;;;;;20.00;57.70;;;;;;5017948;28;1156;-68
2022/01/03 05:24:56;;;;;;;;;;;20.00;57.70;;;;;;5035444;28;1074;-68
2022/01/03 05:27:22;;;;;;;;;;;19.90;57.60;;;;;;5035739;28;1189;-68
2022/01/03 05:29:47;;;;;;;;;;;19.90;57.60;;;;;;5035547;28;1356;-68
2022/01/03 05:32:12;;;;;;;;;;;19.90;57.60;;;;;;5035400;28;1119;-68
2022/01/03 05:34:38;;;;;;;;;;;19.90;57.60;;;;;;5033806;28;1957;-68
2022/01/03 05:37:03;;;;;;;;;;;20.00;57.60;;;;;;5035537;28;1115;-69
2022/01/03 05:39:29;;;;;;;;;;;19.90;57.60;;;;;;5035436;28;1391;-68
2022/01/03 05:41:54;;;;;;;;;;;20.00;57.70;;;;;;5034265;28;1135;-68
2022/01/03 05:44:20;;;;;;;;;;;19.90;57.60;;;;;;5035093;28;1063;-68
2022/01/03 05:46:45;;;;;;;;;;;19.90;57.60;;;;;;5034013;28;1319;-68
2022/01/03 05:49:11;;;;;;;;;;;20.00;57.60;;;;;;5033736;28;1289;-68
2022/01/03 05:51:37;;;;;;;;;;;20.00;57.70;;;;;;5035074;28;1118;-68
2022/01/03 05:54:02;;;;;;;;;;;20.00;57.60;;;;;;5033751;28;1072;-68
2022/01/03 05:56:27;;;;;;;;;;;20.00;57.70;;;;;;5034910;28;1946;-68
2022/01/03 05:58:53;;;;;;;;;;;20.00;57.60;;;;;;5035074;28;1370;-68
2022/01/03 06:01:21;;;;;;;;;;;20.00;57.60;;;;;;5030019;28;1170;-68
2022/01/03 06:03:46;;;;;;;;;;;20.00;57.60;;;;;;5014732;28;1052;-68
2022/01/03 06:08:37;;;;;;;;;;;20.00;57.60;;;;;;5015279;28;1291;-68
2022/01/03 06:11:03;;;;;;;;;;;20.00;57.60;;;;;;5033025;28;1120;-68
2022/01/03 06:13:29;;;;;;;;;;;20.00;57.60;;;;;;5034517;28;1154;-68
2022/01/03 06:15:54;;;;;;;;;;;20.00;57.60;;;;;;5033265;28;1925;-68
2022/01/03 06:18:20;;;;;;;;;;;20.00;57.60;;;;;;5032674;28;1080;-68
2022/01/03 06:20:46;;;;;;;;;;;20.00;57.70;;;;;;5034739;28;1209;-68
2022/01/03 06:23:11;;;;;;;;;;;20.00;57.60;;;;;;5034246;28;1055;-68
2022/01/03 06:25:37;;;;;;;;;;;19.90;57.60;;;;;;5033443;28;1446;-68
2022/01/03 06:28:07;;;;;;;;;;;20.00;57.60;;;;;;5033338;28;1048;-68
2022/01/03 06:30:33;;;;;;;;;;;19.90;57.60;;;;;;5033166;28;1398;-69
2022/01/03 06:32:58;;;;;;;;;;;20.00;57.60;;;;;;5034015;28;1071;-68
2022/01/03 06:35:23;;;;;;;;;;;20.00;57.60;;;;;;5033178;28;1902;-68
2022/01/03 06:37:49;;;;;;;;;;;20.00;57.60;;;;;;5034474;28;1048;-68
2022/01/03 06:40:14;;;;;;;;;;;19.90;57.60;;;;;;5034189;28;1523;-68
2022/01/03 06:42:40;;;;;;;;;;;20.00;57.60;;;;;;5032825;28;1113;-68
2022/01/03 06:45:05;;;;;;;;;;;20.00;57.60;;;;;;5034092;28;1099;-68
2022/01/03 06:47:31;;;;;;;;;;;19.90;57.60;;;;;;5016137;28;1153;-68
2022/01/03 06:49:56;;;;;;;;;;;20.00;57.60;;;;;;5045870;22;3915;-71
2022/01/03 06:52:22;;;;;;;;;;;20.00;57.60;;;;;;5033509;28;980;-72
2022/01/03 06:54:47;;;;;;;;;;;20.00;57.60;;;;;;5036676;28;1956;-72
2022/01/03 06:57:13;;;;;;;;;;;19.90;57.60;;;;;;5054083;28;1081;-71
2022/01/03 06:59:38;;;;;;;;;;;19.90;57.60;;;;;;5046931;28;1373;-72
2022/01/03 07:02:04;;;;;;;;;;;20.00;57.60;;;;;;5022532;28;1253;-71
2022/01/03 07:04:29;;;;;;;;;;;19.90;57.50;;;;;;5013066;28;1050;-71
2022/01/03 07:06:55;;;;;;;;;;;20.00;57.60;;;;;;5014104;28;1072;-71
2022/01/03 07:09:20;;;;;;;;;;;19.90;57.60;;;;;;5018296;28;1446;-71
2022/01/03 07:11:46;;;;;;;;;;;19.90;57.60;;;;;;5032412;28;1068;-71
2022/01/03 07:19:33;;;;;;;;;;;20.00;57.60;;;;;;5002563;28;1196;-71
2022/01/03 07:22:00;;;;;;;;;;;20.00;57.60;;;;;;5013700;28;1187;-72
2022/01/03 07:24:26;;;;;;;;;;;20.00;57.60;;;;;;5013565;28;1116;-71
2022/01/03 07:26:51;;;;;;;;;;;20.00;57.60;;;;;;5013582;28;1078;-72
2022/01/03 07:29:16;;;;;;;;;;;19.90;57.60;;;;;;5012105;28;1288;-72
2022/01/03 07:31:42;;;;;;;;;;;20.00;57.60;;;;;;5013552;28;1091;-71
2022/01/03 07:34:07;;;;;;;;;;;20.00;57.60;;;;;;5013557;28;1941;-72
2022/01/03 07:36:33;;;;;;;;;;;20.00;57.60;;;;;;5013905;28;1084;-72
2022/01/03 07:38:58;;;;;;;;;;;20.00;57.60;;;;;;5013541;28;1360;-71
2022/01/03 07:41:24;;;;;;;;;;;20.00;57.60;;;;;;5013558;28;1057;-71
2022/01/03 07:43:49;;;;;;;;;;;19.90;57.60;;;;;;5012986;28;1198;-71
2022/01/03 07:46:14;;;;;;;;;;;19.90;57.50;;;;;;5014187;28;1068;-72
2022/01/03 07:48:40;;;;;;;;;;;20.00;57.60;;;;;;5031893;28;1091;-71
2022/01/03 07:51:05;;;;;;;;;;;20.00;57.60;;;;;;5032935;28;1262;-71
2022/01/03 07:53:31;;;;;;;;;;;20.00;57.60;;;;;;5032845;28;1266;-71
2022/01/03 07:55:58;;;;;;;;;;;20.00;57.60;;;;;;5031906;28;1975;-72
2022/01/03 07:58:24;;;;;;;;;;;20.00;57.60;;;;;;5032765;28;1052;-71
2022/01/03 08:00:49;;;;;;;;;;;20.00;58.10;;;;;;5031922;28;1176;-71
2022/01/03 08:03:15;;;;;;;;;;;20.10;57.40;;;;;;5006473;28;2148;-71
2022/01/03 08:05:40;;;;;;;;;;;20.20;57.30;;;;;;5025087;28;1155;-70
2022/01/03 08:08:09;;;;;;;;;;;20.30;57.20;;;;;;5024409;28;1371;-72
2022/01/03 08:10:35;;;;;;;;;;;20.40;57.10;;;;;;5025457;28;1206;-72
2022/01/03 08:13:01;;;;;;;;;;;20.50;56.90;;;;;;5031127;28;1301;-71
2022/01/03 08:15:26;;;;;;;;;;;20.60;56.70;;;;;;5017400;28;2313;-72
2022/01/03 08:17:51;;;;;;;;;;;20.70;56.50;;;;;;5013244;28;1261;-71
2022/01/03 08:20:17;;;;;;;;;;;20.80;56.30;;;;;;5013011;28;1359;-72
2022/01/03 08:22:42;;;;;;;;;;;20.90;56.10;;;;;;5012824;28;1084;-72
2022/01/03 08:25:08;;;;;;;;;;;20.90;55.90;;;;;;5013014;28;1064;-71
2022/01/03 08:27:33;;;;;;;;;;;21.00;55.70;;;;;;5011477;28;1136;-72
2022/01/03 08:29:59;;;;;;;;;;;21.10;55.50;;;;;;5012885;28;1404;-71
2022/01/03 08:32:24;;;;;;;;;;;21.20;55.30;;;;;;5012825;28;1099;-72
2022/01/03 08:34:50;;;;;;;;;;;21.20;55.20;;;;;;5012488;28;1903;-71
2022/01/03 08:37:16;;;;;;;;;;;21.20;55.10;;;;;;5019740;28;890;-72
2022/01/03 08:39:41;;;;;;;;;;;21.30;55.10;;;;;;5032862;28;1251;-72
2022/01/03 08:42:07;;;;;;;;;;;21.30;54.90;;;;;;5036182;28;1325;-72
2022/01/03 08:44:32;;;;;;;;;;;21.30;54.80;;;;;;5036276;28;1356;-72
2022/01/03 08:46:58;;;;;;;;;;;21.40;54.80;;;;;;5015514;28;1234;-72
2022/01/03 08:49:23;;;;;;;;;;;21.50;54.70;;;;;;5016533;28;1301;-71
2022/01/03 08:51:48;;;;;;;;;;;21.50;54.70;;;;;;5015360;28;1423;-71
2022/01/03 08:54:14;;;;;;;;;;;21.50;54.60;;;;;;5016204;28;1914;-72
2022/01/03 08:56:39;;;;;;;;;;;21.60;54.50;;;;;;5016231;28;1124;-72
2022/01/03 08:59:05;;;;;;;;;;;21.60;54.40;;;;;;5016426;28;1431;-72
2022/01/03 09:01:30;;;;;;;;;;;21.60;54.40;;;;;;5015232;28;1352;-72
2022/01/03 09:03:56;;;;;;;;;;;21.70;54.40;;;;;;5014845;28;1132;-72
2022/01/03 09:06:22;;;;;;;;;;;21.70;54.30;;;;;;5023100;28;1135;-71
2022/01/03 09:08:47;;;;;;;;;;;21.70;54.30;;;;;;5031469;28;1373;-72
2022/01/03 09:11:13;;;;;;;;;;;21.70;54.30;;;;;;5014757;28;1420;-70
2022/01/03 09:13:38;;;;;;;;;;;21.70;54.30;;;;;;5014526;28;1273;-71
2022/01/03 09:16:07;;;;;;;;;;;21.70;54.30;;;;;;5031326;28;1902;-72
2022/01/03 09:18:35;;;;;;;;;;;21.80;54.30;;;;;;5016220;28;1064;-72
2022/01/03 09:21:01;;;;;;;;;;;21.80;54.30;;;;;;5016218;28;1156;-73
2022/01/03 09:23:33;;;;;;;;;;;21.80;54.30;;;;;;5020735;28;1968;-72
2022/01/03 09:28:49;;;;;;;;;;;21.80;54.40;;;;;;5014861;28;1104;-72
2022/01/03 09:31:27;;;;;;;;;;;21.80;54.40;;;;;;5021955;28;1330;-73
2022/01/03 09:33:53;;;;;;;;;;;21.80;54.40;;;;;;5020353;28;1719;-73
2022/01/03 09:36:19;;;;;;;;;;;21.80;54.40;;;;;;5021434;28;1978;-72
2022/01/03 09:38:44;;;;;;;;;;;21.80;54.30;;;;;;5030966;28;1152;-73
2022/01/03 09:41:10;;;;;;;;;;;21.80;54.40;;;;;;5028779;28;1201;-72
2022/01/03 09:43:48;;;;;;;;;;;21.70;54.30;;;;;;5027264;28;1147;-72
2022/01/03 09:46:14;;;;;;;;;;;21.70;54.30;;;;;;5033768;28;1216;-73
2022/01/03 09:48:41;;;;;;;;;;;21.70;54.40;;;;;;5017241;28;1399;-72
2022/01/03 09:51:06;;;;;;;;;;;21.70;54.40;;;;;;5018947;28;1437;-72
2022/01/03 09:53:32;;;;;;;;;;;21.70;54.40;;;;;;5014013;28;1081;-72
2022/01/03 09:55:57;;;;;;;;;;;21.70;54.50;;;;;;5045731;28;1914;-71
2022/01/03 09:58:23;;;;;;;;;;;21.60;54.50;;;;;;5017354;28;1329;-72
2022/01/03 10:00:48;;;;;;;;;;;21.60;54.50;;;;;;5016826;28;1345;-72
2022/01/03 10:03:13;;;;;;;;;;;21.60;55.20;;;;;;5013414;28;1088;-71
2022/01/03 10:05:39;;;;;;;;;;;21.60;54.70;;;;;;5014079;28;1371;-72
2022/01/03 10:08:04;;;;;;;;;;;21.60;54.70;;;;;;5013974;28;1037;-72
2022/01/03 10:10:30;;;;;;;;;;;21.50;54.80;;;;;;5014991;28;1322;-71
2022/01/03 10:12:55;;;;;;;;;;;21.50;54.80;;;;;;5021960;28;1067;-71
2022/01/03 10:15:21;;;;;;;;;;;21.50;54.90;;;;;;5019839;28;1906;-71
2022/01/03 10:17:47;;;;;;;;;;;21.40;54.90;;;;;;5013546;28;1144;-71
2022/01/03 10:20:13;;;;;;;;;;;21.40;55.00;;;;;;5014791;28;1353;-71
2022/01/03 10:22:38;;;;;;;;;;;21.40;55.10;;;;;;5014780;28;1358;-70
2022/01/03 10:25:17;;;;;;;;;;;21.40;55.10;;;;;;5013353;28;1442;-71
2022/01/03 10:27:50;;;;;;;;;;;21.40;55.20;;;;;;5013270;28;1084;-70
2022/01/03 10:30:29;;;;;;;;;;;21.40;55.20;;;;;;5013432;28;1391;-71
2022/01/03 10:32:54;;;;;;;;;;;21.30;55.20;;;;;;5013251;28;1279;-71
2022/01/03 10:35:20;;;;;;;;;;;21.30;55.30;;;;;;5014525;28;1906;-72
2022/01/03 10:37:45;;;;;;;;;;;21.30;55.30;;;;;;5014449;28;1259;-71
2022/01/03 10:40:21;;;;;;;;;;;21.30;55.40;;;;;;5014219;28;1286;-71
2022/01/03 10:42:47;;;;;;;;;;;21.30;55.50;;;;;;5014245;28;1159;-71
2022/01/03 10:45:12;;;;;;;;;;;21.30;55.50;;;;;;5043116;28;1179;-71
2022/01/03 10:47:41;;;;;;;;;;;21.30;55.50;;;;;;5026532;28;1068;-71
2022/01/03 10:50:14;;;;;;;;;;;21.20;55.50;;;;;;5033990;28;1342;-71
2022/01/03 10:52:39;;;;;;;;;;;21.20;55.60;;;;;;5033815;28;1254;-71
2022/01/03 10:55:09;;;;;;;;;;;21.20;55.60;;;;;;5027478;28;1973;-72
2022/01/03 10:57:52;;;;;;;;;;;21.20;55.60;;;;;;5014082;28;1236;-72
2022/01/03 11:00:28;;;;;;;;;;;21.20;55.70;;;;;;5024982;28;1915;-72
2022/01/03 11:03:24;;;;;;;;;;;21.20;55.70;;;;;;5004726;28;2099;-72
2022/01/03 11:05:53;;;;;;;;;;;21.20;55.80;;;;;;5012369;28;1223;-73
2022/01/03 11:11:04;;;;;;;;;;;21.10;55.80;;;;;;5027179;28;1437;-72
2022/01/03 11:13:32;;;;;;;;;;;21.10;55.90;;;;;;5013674;28;1261;-73
2022/01/03 11:15:59;;;;;;;;;;;21.10;55.90;;;;;;5019171;28;1906;-73
2022/01/03 11:18:30;;;;;;;;;;;21.10;56.00;;;;;;5025219;28;2270;-73
2022/01/03 11:21:02;;;;;;;;;;;21.10;56.00;;;;;;5023933;28;1394;-73
2022/01/03 11:23:27;;;;;;;;;;;21.10;56.00;;;;;;5024688;28;1083;-72
2022/01/03 11:25:54;;;;;;;;;;;21.00;56.20;;;;;;5028638;28;1098;-73
2022/01/03 11:28:22;;;;;;;;;;;21.00;56.00;;;;;;5025997;28;913;-72
2022/01/03 11:30:48;;;;;;;;;;;21.00;56.00;;;;;;5028097;28;1215;-73
2022/01/03 11:33:13;;;;;;;;;;;21.00;56.10;;;;;;5031870;28;1402;-71
2022/01/03 11:35:39;;;;;;;;;;;21.10;56.20;;;;;;5032266;28;1902;-72
2022/01/03 11:38:04;;;;;;;;;;;21.00;56.00;;;;;;5022133;28;1376;-72
2022/01/03 11:40:30;;;;;;;;;;;21.10;56.10;;;;;;5038462;28;1272;-71
2022/01/03 11:42:55;;;;;;;;;;;21.10;56.00;;;;;;5013133;28;1277;-72
2022/01/03 11:45:21;;;;;;;;;;;21.10;56.00;;;;;;5013313;28;1131;-72
2022/01/03 11:47:46;;;;;;;;;;;21.10;56.00;;;;;;5012026;28;1356;-73
2022/01/03 11:50:12;;;;;;;;;;;21.10;56.00;;;;;;5012038;28;1198;-72
2022/01/03 11:52:41;;;;;;;;;;;21.10;56.00;;;;;;5026934;28;1175;-72
2022/01/03 11:55:07;;;;;;;;;;;21.10;56.00;;;;;;5031676;28;1975;-71
2022/01/03 12:05:55;;;;;;;;;;;21.10;56.00;;;;;;5012307;28;1037;-71
2022/01/03 12:08:24;;;;;;;;;;;21.10;56.00;;;;;;5015061;28;1623;-72
2022/01/03 12:10:50;;;;;;;;;;;21.10;56.10;;;;;;5013036;28;1448;-72
2022/01/03 12:13:15;;;;;;;;;;;21.00;56.00;;;;;;5011602;28;1319;-72
2022/01/03 12:15:42;;;;;;;;;;;21.00;56.00;;;;;;5027915;28;1902;-72
2022/01/03 12:18:25;;;;;;;;;;;21.10;56.10;;;;;;5031652;28;1064;-72
2022/01/03 12:20:50;;;;;;;;;;;21.00;56.00;;;;;;5023136;28;1644;-72
2022/01/03 12:23:35;;;;;;;;;;;21.00;56.10;;;;;;5015626;28;2275;-72
2022/01/03 12:26:13;;;;;;;;;;;21.00;56.10;;;;;;5008248;28;1954;-71
2022/01/03 12:28:57;;;;;;;;;;;21.00;56.10;;;;;;5018116;28;1552;-71
2022/01/03 12:31:23;;;;;;;;;;;21.00;56.10;;;;;;5009130;28;1189;-71
2022/01/03 12:34:07;;;;;;;;;;;21.00;56.10;;;;;;5011612;28;1175;-72
2022/01/03 12:36:32;;;;;;;;;;;21.00;56.10;;;;;;5012880;28;1958;-71
2022/01/03 12:39:03;;;;;;;;;;;21.00;56.70;;;;;;5011495;28;1284;-71
2022/01/03 12:41:38;;;;;;;;;;;21.00;56.20;;;;;;5012920;28;1143;-72
2022/01/03 12:44:04;;;;;;;;;;;21.00;56.20;;;;;;5021054;28;847;-71
2022/01/03 12:46:29;;;;;;;;;;;21.00;56.20;;;;;;5032670;28;1171;-71
2022/01/03 12:48:55;;;;;;;;;;;21.00;56.20;;;;;;5011440;28;2291;-71
2022/01/03 12:51:21;;;;;;;;;;;21.00;56.20;;;;;;5017552;28;1167;-73
2022/01/03 12:53:49;;;;;;;;;;;21.00;56.80;;;;;;5030471;28;1150;-72
2022/01/03 12:56:15;;;;;;;;;;;20.90;56.20;;;;;;5028182;28;1909;-72
2022/01/03 12:58:41;;;;;;;;;;;20.90;56.20;;;;;;5011678;28;1574;-73
2022/01/03 13:01:10;;;;;;;;;;;21.00;56.30;;;;;;5011577;28;1388;-72
2022/01/03 13:03:39;;;;;;;;;;;21.00;56.30;;;;;;5012585;28;1245;-72
2022/01/03 13:06:07;;;;;;;;;;;21.00;56.20;;;;;;5012751;28;1299;-72
2022/01/03 13:08:33;;;;;;;;;;;21.00;56.20;;;;;;5012474;28;1075;-72
2022/01/03 13:11:02;;;;;;;;;;;21.00;56.20;;;;;;5041204;28;1418;-72
2022/01/03 13:13:28;;;;;;;;;;;21.00;56.20;;;;;;5023774;28;1075;-72
2022/01/03 13:15:53;;;;;;;;;;;21.00;56.10;;;;;;5011104;28;1957;-73
2022/01/03 13:18:19;;;;;;;;;;;21.00;56.20;;;;;;5023587;28;1202;-72
2022/01/03 13:20:56;;;;;;;;;;;21.00;56.10;;;;;;5014097;28;1373;-72
2022/01/03 13:23:24;;;;;;;;;;;21.00;56.10;;;;;;4999496;28;1296;-72
2022/01/03 13:26:00;;;;;;;;;;;21.00;56.10;;;;;;5012500;28;1225;-72
2022/01/03 13:28:26;;;;;;;;;;;21.00;56.10;;;;;;5016361;28;1260;-72
2022/01/03 13:31:18;;;;;;;;;;;21.00;56.10;;;;;;5019651;28;1191;-71
2022/01/03 13:33:43;;;;;;;;;;;21.00;56.10;;;;;;5013303;28;1244;-70
2022/01/03 13:36:09;;;;;;;;;;;21.00;56.10;;;;;;5014852;28;1902;-71
2022/01/03 13:38:34;;;;;;;;;;;21.00;56.20;;;;;;5015622;28;1333;-72
2022/01/03 13:41:16;;;;;;;;;;;21.00;56.20;;;;;;5015758;28;1382;-70
2022/01/03 13:43:42;;;;;;;;;;;21.00;56.20;;;;;;5014083;28;1431;-70
2022/01/03 13:51:17;;;;;;;;;;;21.00;56.20;;;;;;5015564;28;1056;-71
2022/01/03 13:53:49;;;;;;;;;;;21.00;56.30;;;;;;5030683;28;1100;-72
2022/01/03 13:56:15;;;;;;;;;;;21.00;56.30;;;;;;5014422;28;1918;-72
2022/01/03 13:58:41;;;;;;;;;;;20.90;56.30;;;;;;5015308;28;1044;-71
2022/01/03 14:01:06;;;;;;;;;;;20.90;56.30;;;;;;5015255;28;1406;-71
2022/01/03 14:03:32;;;;;;;;;;;20.90;56.30;;;;;;5015113;28;1296;-70
2022/01/03 14:06:19;;;;;;;;;;;20.90;56.40;;;;;;5015597;28;1340;-72
2022/01/03 14:08:45;;;;;;;;;;;20.90;56.40;;;;;;5015172;28;1048;-71
2022/01/03 14:11:11;;;;;;;;;;;20.90;56.40;;;;;;5034247;28;1220;-71
2022/01/03 14:13:37;;;;;;;;;;;20.90;56.40;;;;;;5033514;28;1351;-71
2022/01/03 14:16:02;;;;;;;;;;;20.90;56.40;;;;;;5015544;28;1965;-70
2022/01/03 14:18:38;;;;;;;;;;;20.90;56.50;;;;;;5015344;28;1350;-70
2022/01/03 14:21:04;;;;;;;;;;;20.90;56.50;;;;;;5001057;28;1215;-73
2022/01/03 14:23:30;;;;;;;;;;;20.80;56.40;;;;;;5014532;28;1077;-72
2022/01/03 14:26:09;;;;;;;;;;;20.90;56.50;;;;;;5013899;28;1124;-72
2022/01/03 14:28:34;;;;;;;;;;;20.80;56.50;;;;;;5016515;28;1952;-71
2022/01/03 14:31:00;;;;;;;;;;;20.80;56.50;;;;;;5014404;28;1462;-72
2022/01/03 14:33:26;;;;;;;;;;;20.80;56.50;;;;;;5016880;28;1315;-71
2022/01/03 14:35:51;;;;;;;;;;;20.80;56.50;;;;;;5014598;28;1906;-72
2022/01/03 14:38:18;;;;;;;;;;;20.80;56.60;;;;;;5015590;28;1162;-72
2022/01/03 14:40:50;;;;;;;;;;;20.80;56.70;;;;;;5024637;28;1372;-73
2022/01/03 14:43:20;;;;;;;;;;;20.80;56.60;;;;;;5017154;28;1180;-72
2022/01/03 14:45:47;;;;;;;;;;;20.80;56.70;;;;;;5033066;28;1405;-72
2022/01/03 14:48:17;;;;;;;;;;;20.80;56.70;;;;;;5016869;28;1121;-73
2022/01/03 14:50:42;;;;;;;;;;;20.70;56.70;;;;;;5025724;28;1319;-73
2022/01/03 14:53:07;;;;;;;;;;;20.70;56.70;;;;;;5032668;28;1056;-72
2022/01/03 14:55:40;;;;;;;;;;;20.70;56.70;;;;;;5032903;28;1910;-72
2022/01/03 14:58:05;;;;;;;;;;;20.70;57.40;;;;;;5033974;28;1360;-72